createdAt,value
2022-08-29T00:00:17.608Z,22.21
2022-08-29T00:02:49.874Z,22.31
2022-08-29T00:05:19.012Z,22.27
2022-08-29T00:07:47.716Z,22.38
2022-08-29T00:10:17.433Z,22.36
2022-08-29T00:12:46.495Z,22.35
2022-08-29T00:15:16.506Z,22.24
2022-08-29T00:17:47.251Z,22.10
2022-08-29T00:20:19.350Z,22.17
2022-08-29T00:22:48.212Z,22.08
2022-08-29T00:25:17.152Z,22.09
2022-08-29T00:27:49.869Z,22.05
2022-08-29T00:30:20.877Z,22.06
2022-08-29T00:32:50.962Z,22.02
2022-08-29T00:35:22.720Z,22.08
2022-08-29T00:37:52.168Z,22.06
2022-08-29T00:40:23.776Z,22.06
2022-08-29T00:42:52.523Z,22.01
2022-08-29T00:45:21.482Z,21.96
2022-08-29T00:47:56.252Z,21.96
2022-08-29T00:50:29.714Z,21.91
2022-08-29T00:53:00.200Z,21.75
2022-08-29T00:55:33.759Z,21.78
2022-08-29T00:58:07.257Z,21.81
2022-08-29T01:00:38.220Z,21.96
2022-08-29T01:03:08.910Z,21.88
2022-08-29T01:05:38.449Z,21.85
2022-08-29T01:08:08.590Z,21.87
2022-08-29T01:10:55.095Z,21.82
2022-08-29T01:13:27.405Z,21.77
2022-08-29T01:15:57.395Z,21.76
2022-08-29T01:18:30.187Z,21.74
2022-08-29T01:21:08.204Z,21.69
2022-08-29T01:23:43.008Z,21.71
2022-08-29T01:26:14.134Z,21.64
2022-08-29T01:28:44.902Z,21.61
2022-08-29T01:31:46.877Z,21.61
2022-08-29T01:34:08.181Z,21.63
2022-08-29T01:36:41.116Z,21.57
2022-08-29T01:39:10.471Z,21.47
2022-08-29T01:41:41.812Z,21.59
2022-08-29T01:44:13.114Z,21.60
2022-08-29T01:46:42.513Z,21.49
2022-08-29T01:49:13.426Z,21.53
2022-08-29T01:51:42.915Z,21.52
2022-08-29T01:54:12.843Z,21.42
2022-08-29T01:56:45.612Z,21.41
2022-08-29T01:59:18.507Z,21.49
2022-08-29T02:01:51.277Z,21.49
2022-08-29T02:04:20.512Z,21.33
2022-08-29T02:06:49.531Z,21.33
2022-08-29T02:09:18.547Z,21.31
2022-08-29T02:11:48.716Z,21.24
2022-08-29T02:14:19.538Z,21.27
2022-08-29T02:16:48.853Z,21.13
2022-08-29T02:19:18.543Z,21.21
2022-08-29T02:21:47.436Z,21.24
2022-08-29T02:24:26.266Z,21.21
2022-08-29T02:26:58.491Z,21.28
2022-08-29T02:29:37.065Z,21.23
2022-08-29T02:32:08.547Z,21.22
2022-08-29T02:34:37.981Z,21.21
2022-08-29T02:37:07.573Z,21.20
2022-08-29T02:39:36.278Z,21.12
2022-08-29T02:42:06.954Z,21.12
2022-08-29T02:44:35.595Z,21.15
2022-08-29T02:47:04.788Z,21.07
2022-08-29T02:49:33.395Z,21.10
2022-08-29T02:52:06.723Z,21.04
2022-08-29T02:54:36.001Z,21.03
2022-08-29T02:57:06.859Z,21.04
2022-08-29T02:59:35.456Z,21.04
2022-08-29T03:02:04.168Z,20.91
2022-08-29T03:04:32.836Z,20.98
2022-08-29T03:07:01.458Z,21.00
2022-08-29T03:09:30.050Z,20.92
2022-08-29T03:11:58.797Z,20.94
2022-08-29T03:14:28.741Z,20.90
2022-08-29T03:16:57.437Z,20.87
2022-08-29T03:19:26.430Z,20.86
2022-08-29T03:21:55.467Z,20.82
2022-08-29T03:24:26.502Z,20.85
2022-08-29T03:26:56.344Z,20.80
2022-08-29T03:29:27.219Z,20.87
2022-08-29T03:31:58.497Z,20.93
2022-08-29T03:34:28.470Z,20.87
2022-08-29T03:36:57.139Z,20.81
2022-08-29T03:39:25.857Z,20.69
2022-08-29T03:41:54.693Z,20.73
2022-08-29T03:44:23.843Z,20.72
2022-08-29T03:46:54.552Z,20.68
2022-08-29T03:49:23.251Z,20.79
2022-08-29T03:51:51.844Z,20.75
2022-08-29T03:54:20.526Z,20.73
2022-08-29T03:56:50.007Z,20.66
2022-08-29T03:59:19.712Z,20.59
2022-08-29T04:01:48.557Z,20.57
2022-08-29T04:04:33.682Z,20.59
2022-08-29T04:07:02.431Z,20.53
2022-08-29T04:09:31.537Z,20.46
2022-08-29T04:12:00.606Z,20.46
2022-08-29T04:14:29.616Z,20.44
2022-08-29T04:16:58.207Z,20.57
2022-08-29T04:19:28.235Z,20.63
2022-08-29T04:21:57.670Z,20.45
2022-08-29T04:24:26.457Z,20.48
2022-08-29T04:26:55.046Z,20.36
2022-08-29T04:29:23.655Z,20.34
2022-08-29T04:31:52.265Z,20.38
2022-08-29T04:34:21.448Z,20.46
2022-08-29T04:36:51.445Z,20.43
2022-08-29T04:39:20.778Z,20.36
2022-08-29T04:41:49.358Z,20.37
2022-08-29T04:44:17.997Z,20.38
2022-08-29T04:46:46.681Z,20.38
2022-08-29T04:49:15.341Z,20.40
2022-08-29T04:51:43.924Z,20.47
2022-08-29T04:54:13.908Z,20.45
2022-08-29T04:56:43.196Z,20.35
2022-08-29T04:59:16.875Z,20.49
2022-08-29T05:01:47.342Z,20.39
2022-08-29T05:04:16.079Z,20.34
2022-08-29T05:06:44.705Z,20.39
2022-08-29T05:09:15.244Z,20.39
2022-08-29T05:11:43.927Z,20.30
2022-08-29T05:14:13.061Z,20.41
2022-08-29T05:16:42.054Z,20.41
2022-08-29T05:19:11.729Z,20.39
2022-08-29T05:21:41.711Z,20.49
2022-08-29T05:24:13.503Z,20.46
2022-08-29T05:26:46.306Z,20.52
2022-08-29T05:29:15.246Z,20.53
2022-08-29T05:31:45.485Z,20.66
2022-08-29T05:34:34.006Z,20.75
2022-08-29T05:37:03.996Z,20.75
2022-08-29T05:39:35.032Z,20.43
2022-08-29T05:42:04.166Z,20.81
2022-08-29T05:44:35.478Z,20.77
2022-08-29T05:47:05.462Z,20.55
2022-08-29T05:49:36.015Z,19.73
2022-08-29T05:52:05.535Z,18.73
2022-08-29T05:54:37.898Z,20.60
2022-08-29T05:57:07.941Z,20.87
2022-08-29T05:59:37.632Z,19.67
2022-08-29T06:02:07.787Z,19.25
2022-08-29T06:04:36.752Z,20.71
2022-08-29T06:07:06.648Z,21.48
2022-08-29T06:09:36.932Z,22.43
2022-08-29T06:12:06.305Z,22.41
2022-08-29T06:14:35.289Z,23.26
2022-08-29T06:17:05.060Z,23.25
2022-08-29T06:19:36.063Z,20.98
2022-08-29T06:22:09.704Z,21.67
2022-08-29T06:24:42.554Z,21.93
2022-08-29T06:27:14.208Z,20.61
2022-08-29T06:29:43.942Z,19.00
2022-08-29T06:32:13.240Z,18.91
2022-08-29T06:34:42.227Z,19.63
2022-08-29T06:37:11.243Z,20.98
2022-08-29T06:39:41.489Z,21.45
2022-08-29T06:42:10.233Z,21.36
2022-08-29T06:44:43.853Z,19.79
2022-08-29T06:47:13.067Z,19.47
2022-08-29T06:49:41.763Z,20.79
2022-08-29T06:52:10.606Z,19.25
2022-08-29T06:54:40.585Z,18.00
2022-08-29T06:57:09.208Z,19.65
2022-08-29T06:59:37.857Z,19.61
2022-08-29T07:02:06.887Z,20.42
2022-08-29T07:04:35.570Z,20.87
2022-08-29T07:07:05.316Z,22.93
2022-08-29T07:09:34.441Z,24.22
2022-08-29T07:12:06.030Z,21.87
2022-08-29T07:14:34.650Z,22.01
2022-08-29T07:17:03.232Z,21.76
2022-08-29T07:19:31.888Z,20.83
2022-08-29T07:22:00.774Z,20.78
2022-08-29T07:24:29.533Z,19.63
2022-08-29T07:26:58.172Z,20.40
2022-08-29T07:29:28.762Z,20.30
2022-08-29T07:31:57.560Z,21.34
2022-08-29T07:34:26.151Z,22.82
2022-08-29T07:36:54.770Z,21.40
2022-08-29T07:39:24.124Z,21.20
2022-08-29T07:41:53.113Z,21.72
2022-08-29T07:44:21.750Z,20.91
2022-08-29T07:46:56.898Z,21.29
2022-08-29T07:49:36.073Z,21.54
2022-08-29T07:52:09.145Z,23.35
2022-08-29T07:54:38.355Z,22.36
2022-08-29T07:57:07.446Z,21.44
2022-08-29T07:59:36.065Z,22.17
2022-08-29T08:02:06.245Z,21.76
2022-08-29T08:04:35.005Z,22.96
2022-08-29T08:07:03.759Z,21.65
2022-08-29T08:09:32.647Z,21.98
2022-08-29T08:12:04.967Z,21.39
2022-08-29T08:14:36.790Z,19.38
2022-08-29T08:17:06.822Z,20.24
2022-08-29T08:19:35.622Z,20.71
2022-08-29T08:22:04.279Z,20.59
2022-08-29T08:24:32.890Z,20.94
2022-08-29T08:27:01.501Z,19.45
2022-08-29T08:29:30.106Z,20.02
2022-08-29T08:31:59.957Z,19.07
2022-08-29T08:34:30.345Z,18.41
2022-08-29T08:36:59.041Z,19.34
2022-08-29T08:39:27.635Z,19.49
2022-08-29T08:42:04.467Z,19.87
2022-08-29T08:44:55.936Z,18.97
2022-08-29T08:47:29.681Z,19.26
2022-08-29T08:50:10.160Z,18.79
2022-08-29T08:52:44.821Z,21.13
2022-08-29T08:55:23.583Z,20.76
2022-08-29T08:58:00.401Z,21.32
2022-08-29T09:00:37.013Z,21.27
2022-08-29T09:03:15.050Z,20.32
2022-08-29T09:06:03.429Z,18.92
2022-08-29T09:08:41.276Z,20.25
2022-08-29T09:11:20.991Z,21.88
2022-08-29T09:13:59.137Z,22.74
2022-08-29T09:16:32.761Z,22.07
2022-08-29T09:19:05.495Z,21.37
2022-08-29T09:21:49.554Z,21.18
2022-08-29T09:24:26.098Z,21.61
2022-08-29T09:26:56.334Z,21.59
2022-08-29T09:29:28.463Z,21.62
2022-08-29T09:32:20.197Z,22.24
2022-08-29T09:35:07.938Z,22.85
2022-08-29T09:37:39.444Z,24.42
2022-08-29T09:40:12.573Z,25.17
2022-08-29T09:43:01.425Z,24.35
2022-08-29T09:45:30.610Z,23.01
2022-08-29T09:48:11.193Z,23.48
2022-08-29T09:50:40.052Z,23.55
2022-08-29T09:53:23.768Z,23.64
2022-08-29T09:55:54.332Z,24.52
2022-08-29T09:58:31.098Z,25.03
2022-08-29T10:01:04.519Z,23.55
2022-08-29T10:03:37.651Z,23.27
2022-08-29T10:06:11.015Z,23.94
2022-08-29T10:08:43.636Z,23.25
2022-08-29T10:11:24.240Z,22.78
2022-08-29T10:13:56.195Z,22.67
2022-08-29T10:16:38.207Z,22.93
2022-08-29T10:19:13.047Z,22.50
2022-08-29T10:21:49.984Z,22.26
2022-08-29T10:24:53.399Z,23.27
2022-08-29T10:27:31.961Z,23.33
2022-08-29T10:30:10.515Z,24.27
2022-08-29T10:33:00.819Z,24.18
2022-08-29T10:35:33.276Z,25.23
2022-08-29T10:38:13.166Z,25.14
2022-08-29T10:40:47.607Z,24.63
2022-08-29T10:43:29.851Z,23.76
2022-08-29T10:46:31.357Z,23.03
2022-08-29T10:49:06.548Z,23.05
2022-08-29T10:51:42.607Z,23.41
2022-08-29T10:54:22.718Z,23.53
2022-08-29T10:56:55.885Z,23.24
2022-08-29T10:59:34.948Z,23.10
2022-08-29T11:02:12.641Z,23.30
2022-08-29T11:04:46.862Z,23.49
2022-08-29T11:07:21.580Z,23.01
2022-08-29T11:09:55.855Z,24.02
2022-08-29T11:12:45.067Z,24.36
2022-08-29T11:15:20.828Z,22.73
2022-08-29T11:17:57.196Z,23.04
2022-08-29T11:20:31.614Z,23.26
2022-08-29T11:23:06.500Z,22.95
2022-08-29T11:25:41.792Z,23.74
2022-08-29T11:28:21.636Z,23.96
2022-08-29T11:30:58.434Z,24.07
2022-08-29T11:33:37.962Z,23.75
2022-08-29T11:36:30.325Z,23.63
2022-08-29T11:39:30.496Z,23.36
2022-08-29T11:42:07.296Z,23.80
2022-08-29T11:44:41.119Z,24.39
2022-08-29T11:47:40.489Z,22.46
2022-08-29T11:50:24.188Z,23.03
2022-08-29T11:52:57.674Z,23.40
2022-08-29T11:55:36.271Z,21.86
2022-08-29T11:58:21.508Z,21.75
2022-08-29T12:00:53.109Z,22.32
2022-08-29T12:03:55.399Z,22.54
2022-08-29T12:06:40.514Z,22.48
2022-08-29T12:09:32.428Z,21.49
2022-08-29T12:12:38.302Z,22.55
2022-08-29T12:15:45.596Z,23.92
2022-08-29T12:18:47.753Z,24.17
2022-08-29T12:21:35.674Z,24.14
2022-08-29T12:24:05.208Z,24.78
2022-08-29T12:26:45.765Z,24.96
2022-08-29T12:29:22.136Z,24.81
2022-08-29T12:32:23.863Z,24.78
2022-08-29T12:35:23.851Z,24.68
2022-08-29T12:38:10.639Z,23.08
2022-08-29T12:41:01.030Z,22.43
2022-08-29T12:43:37.254Z,22.00
2022-08-29T12:46:12.520Z,23.53
2022-08-29T12:48:46.278Z,23.75
2022-08-29T12:51:36.914Z,23.72
2022-08-29T12:54:06.411Z,23.49
2022-08-29T12:56:35.909Z,23.89
2022-08-29T12:59:06.069Z,24.39
2022-08-29T13:01:38.484Z,24.49
2022-08-29T13:04:14.756Z,24.20
2022-08-29T13:06:56.146Z,24.59
2022-08-29T13:09:29.673Z,24.47
2022-08-29T13:12:18.516Z,24.58
2022-08-29T13:14:59.463Z,24.65
2022-08-29T13:17:30.771Z,24.96
2022-08-29T13:20:40.253Z,24.63
2022-08-29T13:23:18.312Z,24.46
2022-08-29T13:25:50.761Z,24.73
2022-08-29T13:28:24.930Z,24.56
2022-08-29T13:31:34.502Z,24.63
2022-08-29T13:34:19.530Z,24.30
2022-08-29T13:36:59.310Z,24.60
2022-08-29T13:39:41.653Z,24.59
2022-08-29T13:42:23.474Z,24.30
2022-08-29T13:45:10.700Z,24.53
2022-08-29T13:47:52.018Z,24.46
2022-08-29T13:50:20.654Z,24.99
2022-08-29T13:52:52.609Z,25.09
2022-08-29T13:55:22.915Z,25.06
2022-08-29T13:57:54.921Z,24.65
2022-08-29T14:00:32.199Z,24.35
2022-08-29T14:03:05.489Z,24.72
2022-08-29T14:05:35.302Z,24.80
2022-08-29T14:08:05.476Z,24.33
2022-08-29T14:10:35.574Z,24.30
2022-08-29T14:13:04.768Z,24.69
2022-08-29T14:15:34.041Z,24.46
2022-08-29T14:18:02.699Z,24.03
2022-08-29T14:20:31.548Z,24.17
2022-08-29T14:23:00.151Z,24.82
2022-08-29T14:25:28.780Z,24.92
2022-08-29T14:27:58.774Z,24.39
2022-08-29T14:30:27.789Z,24.81
2022-08-29T14:32:56.411Z,24.66
2022-08-29T14:35:26.610Z,25.25
2022-08-29T14:38:01.077Z,25.25
2022-08-29T14:40:32.355Z,24.67
2022-08-29T14:43:03.678Z,24.68
2022-08-29T14:45:33.227Z,24.93
2022-08-29T14:48:02.350Z,25.13
2022-08-29T14:50:31.007Z,25.13
2022-08-29T14:53:00.172Z,25.26
2022-08-29T14:55:28.896Z,24.94
2022-08-29T14:57:57.480Z,25.37
2022-08-29T15:00:29.969Z,25.28
2022-08-29T15:03:00.006Z,25.11
2022-08-29T15:05:28.834Z,24.97
2022-08-29T15:07:57.635Z,24.92
2022-08-29T15:10:26.659Z,24.05
2022-08-29T15:12:55.490Z,24.66
2022-08-29T15:15:29.513Z,24.36
2022-08-29T15:18:01.547Z,24.85
2022-08-29T15:20:36.044Z,25.16
2022-08-29T15:23:05.866Z,25.30
2022-08-29T15:25:34.754Z,25.45
2022-08-29T15:28:03.751Z,24.86
2022-08-29T15:30:32.796Z,24.88
2022-08-29T15:33:03.082Z,24.96
2022-08-29T15:35:31.892Z,25.10
2022-08-29T15:38:00.467Z,24.87
2022-08-29T15:40:29.357Z,24.78
2022-08-29T15:42:58.041Z,25.24
2022-08-29T15:45:26.700Z,25.23
2022-08-29T15:47:55.739Z,25.11
2022-08-29T15:50:28.233Z,24.95
2022-08-29T15:52:56.915Z,24.67
2022-08-29T15:55:25.811Z,24.85
2022-08-29T15:57:54.587Z,24.97
2022-08-29T16:00:30.216Z,24.62
2022-08-29T16:03:02.672Z,24.08
2022-08-29T16:05:33.196Z,24.10
2022-08-29T16:08:02.168Z,24.60
2022-08-29T16:10:31.396Z,24.58
2022-08-29T16:13:00.147Z,24.77
2022-08-29T16:15:31.239Z,24.85
2022-08-29T16:18:00.754Z,24.13
2022-08-29T16:20:31.079Z,24.39
2022-08-29T16:23:01.934Z,24.21
2022-08-29T16:25:32.187Z,24.48
2022-08-29T16:28:01.747Z,24.04
2022-08-29T16:30:34.872Z,24.54
2022-08-29T16:33:06.642Z,24.89
2022-08-29T16:35:35.659Z,24.55
2022-08-29T16:38:05.620Z,24.70
2022-08-29T16:40:34.352Z,24.53
2022-08-29T16:43:03.997Z,24.40
2022-08-29T16:45:33.448Z,24.42
2022-08-29T16:48:02.458Z,24.69
2022-08-29T16:50:33.440Z,24.23
2022-08-29T16:53:02.846Z,23.47
2022-08-29T16:55:33.374Z,23.61
2022-08-29T16:58:19.568Z,23.44
2022-08-29T17:00:48.197Z,23.27
2022-08-29T17:03:20.061Z,23.50
2022-08-29T17:05:49.842Z,24.43
2022-08-29T17:08:17.905Z,24.73
2022-08-29T17:10:46.893Z,24.59
2022-08-29T17:13:14.348Z,24.81
2022-08-29T17:15:41.958Z,24.43
2022-08-29T17:18:10.530Z,24.27
2022-08-29T17:20:41.304Z,24.51
2022-08-29T17:23:12.980Z,24.51
2022-08-29T17:25:41.592Z,24.11
2022-08-29T17:28:18.117Z,23.53
2022-08-29T17:30:48.897Z,23.77
2022-08-29T17:33:18.281Z,23.95
2022-08-29T17:35:47.763Z,23.90
2022-08-29T17:38:17.629Z,24.29
2022-08-29T17:40:48.075Z,24.37
2022-08-29T17:43:20.238Z,24.33
2022-08-29T17:45:49.675Z,24.28
2022-08-29T17:48:19.471Z,24.34
2022-08-29T17:50:49.158Z,24.04
2022-08-29T17:53:19.260Z,24.19
2022-08-29T17:55:48.265Z,24.14
2022-08-29T17:58:19.428Z,24.20
2022-08-29T18:00:48.431Z,24.20
2022-08-29T18:03:18.291Z,24.05
2022-08-29T18:05:46.998Z,24.17
2022-08-29T18:08:15.688Z,24.23
2022-08-29T18:10:44.391Z,24.24
2022-08-29T18:13:13.730Z,24.27
2022-08-29T18:15:43.967Z,24.26
2022-08-29T18:18:13.188Z,24.21
2022-08-29T18:20:42.267Z,24.15
2022-08-29T18:23:10.940Z,24.13
2022-08-29T18:25:39.595Z,24.12
2022-08-29T18:28:08.457Z,24.10
2022-08-29T18:30:37.382Z,24.09
2022-08-29T18:33:08.814Z,24.02
2022-08-29T18:35:37.579Z,23.99
2022-08-29T18:38:06.340Z,23.96
2022-08-29T18:40:39.351Z,23.91
2022-08-29T18:43:09.897Z,23.87
2022-08-29T18:45:39.005Z,23.90
2022-08-29T18:48:09.867Z,23.80
2022-08-29T18:50:38.705Z,23.77
2022-08-29T18:53:11.794Z,23.67
2022-08-29T18:55:43.974Z,23.69
2022-08-29T18:58:18.622Z,23.65
2022-08-29T19:00:47.419Z,23.52
2022-08-29T19:03:18.132Z,23.00
2022-08-29T19:05:49.432Z,22.99
2022-08-29T19:08:19.140Z,22.90
2022-08-29T19:10:49.448Z,22.73
2022-08-29T19:13:22.798Z,22.89
2022-08-29T19:15:54.336Z,23.07
2022-08-29T19:18:24.330Z,23.18
2022-08-29T19:21:06.575Z,23.36
2022-08-29T19:23:38.726Z,23.25
2022-08-29T19:26:11.750Z,23.28
2022-08-29T19:28:41.014Z,23.27
2022-08-29T19:31:10.329Z,22.85
2022-08-29T19:33:40.808Z,22.87
2022-08-29T19:36:10.131Z,22.91
2022-08-29T19:38:39.478Z,22.52
2022-08-29T19:41:08.719Z,22.92
2022-08-29T19:43:40.213Z,22.24
2022-08-29T19:46:16.416Z,22.09
2022-08-29T19:48:50.895Z,21.97
2022-08-29T19:51:21.785Z,21.95
2022-08-29T19:53:53.593Z,22.23
2022-08-29T19:56:23.243Z,22.43
2022-08-29T19:58:51.870Z,21.89
2022-08-29T20:01:20.617Z,21.95
2022-08-29T20:03:50.757Z,22.20
2022-08-29T20:06:21.185Z,21.87
2022-08-29T20:08:50.109Z,21.97
2022-08-29T20:11:22.977Z,21.71
2022-08-29T20:13:53.508Z,21.97
2022-08-29T20:16:25.869Z,22.35
2022-08-29T20:18:56.462Z,22.16
2022-08-29T20:21:25.644Z,22.47
2022-08-29T20:23:57.671Z,22.69
2022-08-29T20:26:27.984Z,22.06
2022-08-29T20:28:58.459Z,21.96
2022-08-29T20:31:27.985Z,21.87
2022-08-29T20:33:58.243Z,22.08
2022-08-29T20:36:45.194Z,22.49
2022-08-29T20:39:16.584Z,22.64
2022-08-29T20:41:49.332Z,22.93
2022-08-29T20:44:20.394Z,22.78
2022-08-29T20:46:50.077Z,22.85
2022-08-29T20:49:22.822Z,23.18
2022-08-29T20:51:52.566Z,22.94
2022-08-29T20:54:24.225Z,22.82
2022-08-29T20:56:53.713Z,23.03
2022-08-29T20:59:26.157Z,22.99
2022-08-29T21:01:55.548Z,23.01
2022-08-29T21:04:43.982Z,22.75
2022-08-29T21:07:14.830Z,23.11
2022-08-29T21:09:45.868Z,23.21
2022-08-29T21:12:16.038Z,23.28
2022-08-29T21:14:45.184Z,23.34
2022-08-29T21:17:14.948Z,23.37
2022-08-29T21:19:44.990Z,23.38
2022-08-29T21:22:15.179Z,23.06
2022-08-29T21:24:44.557Z,22.74
2022-08-29T21:27:13.232Z,23.19
2022-08-29T21:29:42.515Z,22.93
2022-08-29T21:32:11.192Z,22.43
2022-08-29T21:34:39.814Z,22.62
2022-08-29T21:37:09.797Z,22.55
2022-08-29T21:39:38.393Z,22.70
2022-08-29T21:42:08.106Z,22.65
2022-08-29T21:44:36.698Z,22.16
2022-08-29T21:47:05.934Z,21.75
2022-08-29T21:49:34.887Z,21.89
2022-08-29T21:52:03.788Z,22.07
2022-08-29T21:54:33.762Z,22.41
2022-08-29T21:57:02.389Z,22.31
2022-08-29T21:59:31.031Z,22.35
2022-08-29T22:02:00.097Z,22.39
2022-08-29T22:04:29.431Z,22.28
2022-08-29T22:06:59.786Z,22.21
2022-08-29T22:09:29.823Z,22.42
2022-08-29T22:12:00.416Z,22.72
2022-08-29T22:14:43.442Z,22.43
2022-08-29T22:17:12.179Z,22.40
2022-08-29T22:19:41.866Z,22.16
2022-08-29T22:22:10.696Z,21.42
2022-08-29T22:24:39.288Z,21.72
2022-08-29T22:27:09.396Z,21.52
2022-08-29T22:29:38.203Z,21.96
2022-08-29T22:32:06.960Z,22.02
2022-08-29T22:34:35.841Z,22.21
2022-08-29T22:37:04.693Z,22.76
2022-08-29T22:39:33.451Z,22.02
2022-08-29T22:42:02.642Z,21.92
2022-08-29T22:45:00.063Z,22.07
2022-08-29T22:49:50.039Z,22.51
2022-08-29T22:52:18.782Z,22.56
2022-08-29T22:54:47.516Z,22.75
2022-08-29T22:57:18.212Z,22.95
2022-08-29T22:59:49.663Z,22.93
2022-08-29T23:02:20.611Z,22.84
2022-08-29T23:04:51.681Z,21.55
2022-08-29T23:07:21.366Z,22.06
2022-08-29T23:09:50.783Z,21.88
2022-08-29T23:12:20.343Z,21.41
2022-08-29T23:14:50.404Z,21.74
2022-08-29T23:17:20.427Z,21.84
2022-08-29T23:19:49.959Z,22.34
2022-08-29T23:22:19.877Z,21.81
2022-08-29T23:24:58.313Z,21.95
2022-08-29T23:27:28.436Z,21.71
2022-08-29T23:29:58.614Z,21.17
2022-08-29T23:32:27.948Z,21.16
2022-08-29T23:34:56.872Z,20.46
2022-08-29T23:37:25.704Z,21.12
2022-08-29T23:39:54.404Z,22.03
2022-08-29T23:42:23.070Z,21.53
2022-08-29T23:44:51.670Z,22.10
2022-08-29T23:47:21.740Z,21.33
2022-08-29T23:49:50.366Z,20.75
2022-08-29T23:52:19.120Z,20.69
2022-08-29T23:54:47.968Z,20.63
2022-08-29T23:57:16.590Z,20.78
